sensor_id;sensor_type;location;lat;lon;timestamp;P1;durP1;ratioP1;P2;durP2;ratioP2
31004;SDS011;17676;52.254;4.490;2023-12-22T00:00:18;24.08;;;2.28;;
31004;SDS011;17676;52.254;4.490;2023-12-22T00:02:44;19.05;;;1.55;;
31004;SDS011;17676;52.254;4.490;2023-12-22T00:05:09;27.30;;;1.73;;
31004;SDS011;17676;52.254;4.490;2023-12-22T00:07:35;21.70;;;1.45;;
31004;SDS011;17676;52.254;4.490;2023-12-22T00:10:01;18.33;;;1.35;;
31004;SDS011;17676;52.254;4.490;2023-12-22T00:12:27;21.35;;;1.45;;
31004;SDS011;17676;52.254;4.490;2023-12-22T00:14:53;18.45;;;1.45;;
31004;SDS011;17676;52.254;4.490;2023-12-22T00:17:19;18.42;;;0.95;;
31004;SDS011;17676;52.254;4.490;2023-12-22T00:19:45;17.33;;;2.17;;
31004;SDS011;17676;52.254;4.490;2023-12-22T00:22:11;16.20;;;2.08;;
31004;SDS011;17676;52.254;4.490;2023-12-22T00:24:38;24.30;;;2.65;;
31004;SDS011;17676;52.254;4.490;2023-12-22T00:27:05;14.30;;;1.13;;
31004;SDS011;17676;52.254;4.490;2023-12-22T00:29:31;18.83;;;2.67;;
31004;SDS011;17676;52.254;4.490;2023-12-22T00:32:01;17.80;;;1.05;;
31004;SDS011;17676;52.254;4.490;2023-12-22T00:34:26;25.77;;;1.67;;
31004;SDS011;17676;52.254;4.490;2023-12-22T00:36:53;20.42;;;2.25;;
31004;SDS011;17676;52.254;4.490;2023-12-22T00:39:18;20.65;;;1.73;;
31004;SDS011;17676;52.254;4.490;2023-12-22T00:41:44;19.65;;;1.95;;
31004;SDS011;17676;52.254;4.490;2023-12-22T00:44:09;19.73;;;2.10;;
31004;SDS011;17676;52.254;4.490;2023-12-22T00:46:35;22.80;;;1.98;;
31004;SDS011;17676;52.254;4.490;2023-12-22T00:49:00;21.25;;;2.63;;
31004;SDS011;17676;52.254;4.490;2023-12-22T00:51:26;21.25;;;1.58;;
31004;SDS011;17676;52.254;4.490;2023-12-22T00:53:59;19.70;;;1.95;;
31004;SDS011;17676;52.254;4.490;2023-12-22T00:56:25;17.08;;;1.60;;
31004;SDS011;17676;52.254;4.490;2023-12-22T00:58:51;21.30;;;1.90;;
31004;SDS011;17676;52.254;4.490;2023-12-22T01:01:16;15.75;;;1.63;;
31004;SDS011;17676;52.254;4.490;2023-12-22T01:03:42;18.83;;;2.22;;
31004;SDS011;17676;52.254;4.490;2023-12-22T01:06:08;20.90;;;1.48;;
31004;SDS011;17676;52.254;4.490;2023-12-22T01:08:36;13.50;;;1.52;;
31004;SDS011;17676;52.254;4.490;2023-12-22T01:11:02;13.90;;;1.35;;
31004;SDS011;17676;52.254;4.490;2023-12-22T01:13:28;12.23;;;1.75;;
31004;SDS011;17676;52.254;4.490;2023-12-22T01:15:56;21.45;;;2.08;;
31004;SDS011;17676;52.254;4.490;2023-12-22T01:18:21;21.77;;;2.13;;
31004;SDS011;17676;52.254;4.490;2023-12-22T01:20:47;22.27;;;2.22;;
31004;SDS011;17676;52.254;4.490;2023-12-22T01:23:14;19.10;;;1.45;;
31004;SDS011;17676;52.254;4.490;2023-12-22T01:25:40;21.35;;;2.25;;
31004;SDS011;17676;52.254;4.490;2023-12-22T01:28:05;27.45;;;2.30;;
31004;SDS011;17676;52.254;4.490;2023-12-22T01:30:31;19.27;;;1.52;;
31004;SDS011;17676;52.254;4.490;2023-12-22T01:32:57;13.15;;;2.05;;
31004;SDS011;17676;52.254;4.490;2023-12-22T01:35:23;20.67;;;2.30;;
31004;SDS011;17676;52.254;4.490;2023-12-22T01:37:49;19.50;;;1.67;;
31004;SDS011;17676;52.254;4.490;2023-12-22T01:40:14;11.82;;;1.23;;
31004;SDS011;17676;52.254;4.490;2023-12-22T01:42:40;17.38;;;1.33;;
31004;SDS011;17676;52.254;4.490;2023-12-22T01:45:06;11.38;;;1.52;;
31004;SDS011;17676;52.254;4.490;2023-12-22T01:47:32;21.88;;;2.03;;
31004;SDS011;17676;52.254;4.490;2023-12-22T01:49:58;16.52;;;2.08;;
31004;SDS011;17676;52.254;4.490;2023-12-22T01:52:25;25.10;;;2.97;;
31004;SDS011;17676;52.254;4.490;2023-12-22T01:54:51;13.68;;;1.70;;
31004;SDS011;17676;52.254;4.490;2023-12-22T01:57:17;17.83;;;1.33;;
31004;SDS011;17676;52.254;4.490;2023-12-22T01:59:44;17.45;;;2.67;;
31004;SDS011;17676;52.254;4.490;2023-12-22T02:02:11;18.90;;;1.52;;
31004;SDS011;17676;52.254;4.490;2023-12-22T02:04:37;23.40;;;2.03;;
31004;SDS011;17676;52.254;4.490;2023-12-22T02:07:04;17.75;;;1.50;;
31004;SDS011;17676;52.254;4.490;2023-12-22T02:09:33;21.67;;;1.95;;
31004;SDS011;17676;52.254;4.490;2023-12-22T02:11:59;16.50;;;1.80;;
31004;SDS011;17676;52.254;4.490;2023-12-22T02:14:25;15.48;;;1.48;;
31004;SDS011;17676;52.254;4.490;2023-12-22T02:21:59;22.77;;;1.98;;
31004;SDS011;17676;52.254;4.490;2023-12-22T02:24:28;19.42;;;1.83;;
31004;SDS011;17676;52.254;4.490;2023-12-22T02:26:55;29.20;;;3.10;;
31004;SDS011;17676;52.254;4.490;2023-12-22T02:29:32;31.13;;;2.63;;
31004;SDS011;17676;52.254;4.490;2023-12-22T02:32:05;25.88;;;2.35;;
31004;SDS011;17676;52.254;4.490;2023-12-22T02:34:35;20.45;;;1.70;;
31004;SDS011;17676;52.254;4.490;2023-12-22T02:37:05;20.60;;;2.38;;
31004;SDS011;17676;52.254;4.490;2023-12-22T02:39:34;26.83;;;2.40;;
31004;SDS011;17676;52.254;4.490;2023-12-22T02:42:02;21.33;;;1.83;;
31004;SDS011;17676;52.254;4.490;2023-12-22T02:44:28;23.65;;;2.08;;
31004;SDS011;17676;52.254;4.490;2023-12-22T02:46:54;20.27;;;2.05;;
31004;SDS011;17676;52.254;4.490;2023-12-22T02:49:21;18.88;;;1.33;;
31004;SDS011;17676;52.254;4.490;2023-12-22T02:51:46;25.65;;;1.92;;
31004;SDS011;17676;52.254;4.490;2023-12-22T02:54:12;25.38;;;4.63;;
31004;SDS011;17676;52.254;4.490;2023-12-22T02:56:40;24.65;;;2.90;;
31004;SDS011;17676;52.254;4.490;2023-12-22T02:59:08;21.95;;;2.30;;
31004;SDS011;17676;52.254;4.490;2023-12-22T03:01:34;18.65;;;2.25;;
31004;SDS011;17676;52.254;4.490;2023-12-22T03:04:00;17.00;;;1.05;;
31004;SDS011;17676;52.254;4.490;2023-12-22T03:06:25;29.15;;;3.90;;
31004;SDS011;17676;52.254;4.490;2023-12-22T03:08:51;23.98;;;2.35;;
31004;SDS011;17676;52.254;4.490;2023-12-22T03:11:16;18.95;;;2.75;;
31004;SDS011;17676;52.254;4.490;2023-12-22T03:13:45;19.15;;;2.50;;
31004;SDS011;17676;52.254;4.490;2023-12-22T03:16:11;17.05;;;1.33;;
31004;SDS011;17676;52.254;4.490;2023-12-22T03:18:39;8.18;;;0.90;;
31004;SDS011;17676;52.254;4.490;2023-12-22T03:21:05;19.10;;;1.90;;
31004;SDS011;17676;52.254;4.490;2023-12-22T03:23:30;16.85;;;1.33;;
31004;SDS011;17676;52.254;4.490;2023-12-22T03:25:56;16.42;;;1.60;;
31004;SDS011;17676;52.254;4.490;2023-12-22T03:28:21;24.67;;;2.25;;
31004;SDS011;17676;52.254;4.490;2023-12-22T03:30:47;17.98;;;1.88;;
31004;SDS011;17676;52.254;4.490;2023-12-22T03:33:12;10.45;;;1.55;;
31004;SDS011;17676;52.254;4.490;2023-12-22T03:35:38;22.73;;;2.67;;
31004;SDS011;17676;52.254;4.490;2023-12-22T03:38:07;17.58;;;1.85;;
31004;SDS011;17676;52.254;4.490;2023-12-22T03:40:35;24.90;;;2.60;;
31004;SDS011;17676;52.254;4.490;2023-12-22T03:43:01;15.15;;;1.33;;
31004;SDS011;17676;52.254;4.490;2023-12-22T03:45:26;15.38;;;2.10;;
31004;SDS011;17676;52.254;4.490;2023-12-22T03:47:52;22.63;;;2.20;;
31004;SDS011;17676;52.254;4.490;2023-12-22T03:50:17;17.17;;;1.40;;
31004;SDS011;17676;52.254;4.490;2023-12-22T03:52:43;18.40;;;1.80;;
31004;SDS011;17676;52.254;4.490;2023-12-22T03:55:09;19.95;;;1.98;;
31004;SDS011;17676;52.254;4.490;2023-12-22T03:57:34;17.67;;;2.40;;
31004;SDS011;17676;52.254;4.490;2023-12-22T04:00:02;18.75;;;1.65;;
31004;SDS011;17676;52.254;4.490;2023-12-22T04:02:29;19.00;;;1.80;;
31004;SDS011;17676;52.254;4.490;2023-12-22T04:04:54;17.42;;;1.27;;
31004;SDS011;17676;52.254;4.490;2023-12-22T04:07:20;19.00;;;2.33;;
31004;SDS011;17676;52.254;4.490;2023-12-22T04:09:46;19.80;;;2.05;;
31004;SDS011;17676;52.254;4.490;2023-12-22T04:12:11;21.50;;;2.72;;
31004;SDS011;17676;52.254;4.490;2023-12-22T04:14:37;15.18;;;1.75;;
31004;SDS011;17676;52.254;4.490;2023-12-22T04:17:03;15.20;;;2.30;;
31004;SDS011;17676;52.254;4.490;2023-12-22T04:19:29;14.95;;;1.40;;
31004;SDS011;17676;52.254;4.490;2023-12-22T04:21:54;10.35;;;1.30;;
31004;SDS011;17676;52.254;4.490;2023-12-22T04:24:20;10.20;;;0.75;;
31004;SDS011;17676;52.254;4.490;2023-12-22T04:26:46;13.02;;;0.90;;
31004;SDS011;17676;52.254;4.490;2023-12-22T04:29:11;17.55;;;2.10;;
31004;SDS011;17676;52.254;4.490;2023-12-22T04:31:37;12.18;;;1.13;;
31004;SDS011;17676;52.254;4.490;2023-12-22T04:34:02;13.52;;;1.33;;
31004;SDS011;17676;52.254;4.490;2023-12-22T04:36:30;16.10;;;1.40;;
31004;SDS011;17676;52.254;4.490;2023-12-22T04:38:56;12.70;;;1.40;;
31004;SDS011;17676;52.254;4.490;2023-12-22T04:41:22;19.88;;;1.63;;
31004;SDS011;17676;52.254;4.490;2023-12-22T04:43:48;14.65;;;1.02;;
31004;SDS011;17676;52.254;4.490;2023-12-22T04:46:14;17.58;;;1.05;;
31004;SDS011;17676;52.254;4.490;2023-12-22T04:48:40;15.80;;;1.50;;
31004;SDS011;17676;52.254;4.490;2023-12-22T04:51:06;12.52;;;1.73;;
31004;SDS011;17676;52.254;4.490;2023-12-22T04:53:33;16.70;;;1.50;;
31004;SDS011;17676;52.254;4.490;2023-12-22T04:56:01;16.27;;;1.33;;
31004;SDS011;17676;52.254;4.490;2023-12-22T04:58:26;13.98;;;1.13;;
31004;SDS011;17676;52.254;4.490;2023-12-22T05:00:52;22.08;;;1.92;;
31004;SDS011;17676;52.254;4.490;2023-12-22T05:03:18;14.65;;;2.25;;
31004;SDS011;17676;52.254;4.490;2023-12-22T05:05:43;21.05;;;1.33;;
31004;SDS011;17676;52.254;4.490;2023-12-22T05:08:09;16.88;;;1.90;;
31004;SDS011;17676;52.254;4.490;2023-12-22T05:10:34;17.15;;;1.50;;
31004;SDS011;17676;52.254;4.490;2023-12-22T05:13:00;19.00;;;1.77;;
31004;SDS011;17676;52.254;4.490;2023-12-22T05:15:25;21.08;;;1.70;;
31004;SDS011;17676;52.254;4.490;2023-12-22T05:17:51;15.68;;;2.38;;
31004;SDS011;17676;52.254;4.490;2023-12-22T05:20:17;14.93;;;1.40;;
31004;SDS011;17676;52.254;4.490;2023-12-22T05:22:43;20.20;;;2.08;;
31004;SDS011;17676;52.254;4.490;2023-12-22T05:25:09;19.58;;;2.67;;
31004;SDS011;17676;52.254;4.490;2023-12-22T05:27:37;25.98;;;2.67;;
31004;SDS011;17676;52.254;4.490;2023-12-22T05:30:04;19.27;;;2.13;;
31004;SDS011;17676;52.254;4.490;2023-12-22T05:32:30;22.08;;;2.10;;
31004;SDS011;17676;52.254;4.490;2023-12-22T05:34:56;18.75;;;2.05;;
31004;SDS011;17676;52.254;4.490;2023-12-22T05:37:22;20.65;;;1.95;;
31004;SDS011;17676;52.254;4.490;2023-12-22T05:39:48;18.60;;;2.40;;
31004;SDS011;17676;52.254;4.490;2023-12-22T05:42:13;14.27;;;2.03;;
31004;SDS011;17676;52.254;4.490;2023-12-22T05:44:39;21.52;;;2.42;;
31004;SDS011;17676;52.254;4.490;2023-12-22T05:47:04;17.98;;;2.20;;
31004;SDS011;17676;52.254;4.490;2023-12-22T05:49:30;18.00;;;2.38;;
31004;SDS011;17676;52.254;4.490;2023-12-22T05:51:56;19.10;;;1.98;;
31004;SDS011;17676;52.254;4.490;2023-12-22T05:54:21;29.23;;;2.97;;
31004;SDS011;17676;52.254;4.490;2023-12-22T05:56:48;16.98;;;3.22;;
31004;SDS011;17676;52.254;4.490;2023-12-22T05:59:16;21.60;;;2.40;;
31004;SDS011;17676;52.254;4.490;2023-12-22T06:01:41;29.33;;;3.42;;
31004;SDS011;17676;52.254;4.490;2023-12-22T06:04:07;32.45;;;3.88;;
31004;SDS011;17676;52.254;4.490;2023-12-22T06:06:33;24.13;;;2.20;;
31004;SDS011;17676;52.254;4.490;2023-12-22T06:08:58;19.63;;;2.50;;
31004;SDS011;17676;52.254;4.490;2023-12-22T06:11:24;28.15;;;2.60;;
31004;SDS011;17676;52.254;4.490;2023-12-22T06:13:50;35.65;;;4.10;;
31004;SDS011;17676;52.254;4.490;2023-12-22T06:16:16;30.55;;;3.97;;
31004;SDS011;17676;52.254;4.490;2023-12-22T06:18:43;30.35;;;3.17;;
31004;SDS011;17676;52.254;4.490;2023-12-22T06:21:09;28.98;;;4.30;;
31004;SDS011;17676;52.254;4.490;2023-12-22T06:23:35;25.08;;;3.47;;
31004;SDS011;17676;52.254;4.490;2023-12-22T06:26:07;27.50;;;3.35;;
31004;SDS011;17676;52.254;4.490;2023-12-22T06:28:33;26.67;;;2.83;;
31004;SDS011;17676;52.254;4.490;2023-12-22T06:31:01;29.17;;;3.80;;
31004;SDS011;17676;52.254;4.490;2023-12-22T06:33:26;32.78;;;4.03;;
31004;SDS011;17676;52.254;4.490;2023-12-22T06:35:52;20.13;;;2.75;;
31004;SDS011;17676;52.254;4.490;2023-12-22T06:38:19;24.92;;;3.72;;
31004;SDS011;17676;52.254;4.490;2023-12-22T06:40:44;27.73;;;2.88;;
31004;SDS011;17676;52.254;4.490;2023-12-22T06:43:12;23.42;;;3.00;;
31004;SDS011;17676;52.254;4.490;2023-12-22T06:45:39;33.92;;;3.92;;
31004;SDS011;17676;52.254;4.490;2023-12-22T06:48:06;37.38;;;4.07;;
31004;SDS011;17676;52.254;4.490;2023-12-22T06:50:32;41.25;;;4.38;;
31004;SDS011;17676;52.254;4.490;2023-12-22T06:52:58;20.30;;;3.33;;
31004;SDS011;17676;52.254;4.490;2023-12-22T06:55:24;35.20;;;5.50;;
31004;SDS011;17676;52.254;4.490;2023-12-22T06:57:49;31.98;;;3.78;;
31004;SDS011;17676;52.254;4.490;2023-12-22T07:00:15;34.00;;;4.18;;
31004;SDS011;17676;52.254;4.490;2023-12-22T07:06:20;24.35;;;3.92;;
31004;SDS011;17676;52.254;4.490;2023-12-22T07:12:27;31.98;;;3.50;;
31004;SDS011;17676;52.254;4.490;2023-12-22T07:14:53;26.92;;;4.05;;
31004;SDS011;17676;52.254;4.490;2023-12-22T07:17:21;22.38;;;3.22;;
31004;SDS011;17676;52.254;4.490;2023-12-22T07:19:47;27.38;;;2.80;;
31004;SDS011;17676;52.254;4.490;2023-12-22T07:22:12;21.92;;;3.33;;
31004;SDS011;17676;52.254;4.490;2023-12-22T07:24:40;21.00;;;3.70;;
31004;SDS011;17676;52.254;4.490;2023-12-22T07:27:06;37.67;;;3.63;;
31004;SDS011;17676;52.254;4.490;2023-12-22T07:29:32;34.58;;;4.07;;
31004;SDS011;17676;52.254;4.490;2023-12-22T07:31:57;29.55;;;3.50;;
31004;SDS011;17676;52.254;4.490;2023-12-22T07:34:23;33.40;;;3.78;;
31004;SDS011;17676;52.254;4.490;2023-12-22T07:36:51;20.38;;;3.13;;
31004;SDS011;17676;52.254;4.490;2023-12-22T07:39:18;25.73;;;2.92;;
31004;SDS011;17676;52.254;4.490;2023-12-22T07:41:44;30.08;;;3.83;;
31004;SDS011;17676;52.254;4.490;2023-12-22T07:44:09;30.75;;;3.53;;
31004;SDS011;17676;52.254;4.490;2023-12-22T07:46:35;28.58;;;3.38;;
31004;SDS011;17676;52.254;4.490;2023-12-22T07:49:00;25.50;;;3.30;;
31004;SDS011;17676;52.254;4.490;2023-12-22T07:51:26;20.77;;;2.08;;
31004;SDS011;17676;52.254;4.490;2023-12-22T07:53:52;27.73;;;3.08;;
31004;SDS011;17676;52.254;4.490;2023-12-22T07:56:17;35.55;;;3.60;;
31004;SDS011;17676;52.254;4.490;2023-12-22T07:58:46;22.92;;;2.90;;
31004;SDS011;17676;52.254;4.490;2023-12-22T08:01:13;29.42;;;3.13;;
31004;SDS011;17676;52.254;4.490;2023-12-22T08:03:40;19.75;;;2.33;;
31004;SDS011;17676;52.254;4.490;2023-12-22T08:06:08;22.42;;;1.88;;
31004;SDS011;17676;52.254;4.490;2023-12-22T08:08:34;30.48;;;3.92;;
31004;SDS011;17676;52.254;4.490;2023-12-22T08:11:03;18.98;;;2.28;;
31004;SDS011;17676;52.254;4.490;2023-12-22T08:13:29;26.17;;;2.50;;
31004;SDS011;17676;52.254;4.490;2023-12-22T08:15:57;21.55;;;2.72;;
31004;SDS011;17676;52.254;4.490;2023-12-22T08:18:23;28.73;;;2.78;;
31004;SDS011;17676;52.254;4.490;2023-12-22T08:20:49;27.00;;;3.08;;
31004;SDS011;17676;52.254;4.490;2023-12-22T08:23:14;23.13;;;3.28;;
31004;SDS011;17676;52.254;4.490;2023-12-22T08:25:40;20.17;;;1.98;;
31004;SDS011;17676;52.254;4.490;2023-12-22T08:28:06;29.08;;;3.08;;
31004;SDS011;17676;52.254;4.490;2023-12-22T08:30:32;23.38;;;2.55;;
31004;SDS011;17676;52.254;4.490;2023-12-22T08:32:58;25.95;;;2.45;;
31004;SDS011;17676;52.254;4.490;2023-12-22T08:35:24;20.83;;;2.72;;
31004;SDS011;17676;52.254;4.490;2023-12-22T08:37:50;19.17;;;2.25;;
31004;SDS011;17676;52.254;4.490;2023-12-22T08:40:16;19.85;;;2.58;;
31004;SDS011;17676;52.254;4.490;2023-12-22T08:42:41;25.83;;;2.40;;
31004;SDS011;17676;52.254;4.490;2023-12-22T08:45:07;14.80;;;1.58;;
31004;SDS011;17676;52.254;4.490;2023-12-22T08:47:36;15.23;;;2.75;;
31004;SDS011;17676;52.254;4.490;2023-12-22T08:50:04;16.77;;;2.40;;
31004;SDS011;17676;52.254;4.490;2023-12-22T08:52:32;21.77;;;2.05;;
31004;SDS011;17676;52.254;4.490;2023-12-22T08:57:51;20.10;;;1.65;;
31004;SDS011;17676;52.254;4.490;2023-12-22T09:00:18;19.00;;;1.42;;
31004;SDS011;17676;52.254;4.490;2023-12-22T09:19:02;19.00;;;1.38;;
31004;SDS011;17676;52.254;4.490;2023-12-22T09:21:27;16.95;;;1.90;;
31004;SDS011;17676;52.254;4.490;2023-12-22T09:23:53;29.30;;;3.50;;
31004;SDS011;17676;52.254;4.490;2023-12-22T09:26:19;18.58;;;2.17;;
31004;SDS011;17676;52.254;4.490;2023-12-22T09:28:44;16.60;;;1.42;;
31004;SDS011;17676;52.254;4.490;2023-12-22T09:31:10;14.32;;;1.48;;
31004;SDS011;17676;52.254;4.490;2023-12-22T09:33:37;11.98;;;1.85;;
31004;SDS011;17676;52.254;4.490;2023-12-22T09:36:05;10.23;;;1.15;;
31004;SDS011;17676;52.254;4.490;2023-12-22T09:38:31;16.98;;;1.40;;
31004;SDS011;17676;52.254;4.490;2023-12-22T09:40:57;12.35;;;0.82;;
31004;SDS011;17676;52.254;4.490;2023-12-22T09:43:22;13.07;;;0.80;;
31004;SDS011;17676;52.254;4.490;2023-12-22T09:45:48;16.15;;;1.45;;
31004;SDS011;17676;52.254;4.490;2023-12-22T09:48:15;12.32;;;1.45;;
31004;SDS011;17676;52.254;4.490;2023-12-22T09:50:45;19.95;;;1.83;;
31004;SDS011;17676;52.254;4.490;2023-12-22T09:53:14;16.10;;;1.90;;
31004;SDS011;17676;52.254;4.490;2023-12-22T09:55:45;10.13;;;0.90;;
31004;SDS011;17676;52.254;4.490;2023-12-22T09:58:12;16.42;;;1.20;;
31004;SDS011;17676;52.254;4.490;2023-12-22T10:00:44;12.50;;;1.45;;
31004;SDS011;17676;52.254;4.490;2023-12-22T10:03:10;16.35;;;2.03;;
31004;SDS011;17676;52.254;4.490;2023-12-22T10:05:38;14.10;;;1.10;;
31004;SDS011;17676;52.254;4.490;2023-12-22T10:08:05;15.75;;;2.08;;
31004;SDS011;17676;52.254;4.490;2023-12-22T10:10:35;15.48;;;1.38;;
31004;SDS011;17676;52.254;4.490;2023-12-22T10:13:02;20.33;;;1.85;;
31004;SDS011;17676;52.254;4.490;2023-12-22T10:15:32;13.18;;;0.85;;
31004;SDS011;17676;52.254;4.490;2023-12-22T10:18:04;10.40;;;1.10;;
31004;SDS011;17676;52.254;4.490;2023-12-22T10:20:30;22.08;;;1.15;;
31004;SDS011;17676;52.254;4.490;2023-12-22T10:22:56;14.43;;;1.08;;
31004;SDS011;17676;52.254;4.490;2023-12-22T10:25:23;20.90;;;1.65;;
31004;SDS011;17676;52.254;4.490;2023-12-22T10:27:52;15.52;;;1.23;;
31004;SDS011;17676;52.254;4.490;2023-12-22T10:30:18;15.13;;;1.02;;
31004;SDS011;17676;52.254;4.490;2023-12-22T10:32:45;20.48;;;1.63;;
31004;SDS011;17676;52.254;4.490;2023-12-22T10:35:10;9.57;;;1.13;;
31004;SDS011;17676;52.254;4.490;2023-12-22T10:37:36;18.40;;;1.20;;
31004;SDS011;17676;52.254;4.490;2023-12-22T10:40:05;11.82;;;0.85;;
31004;SDS011;17676;52.254;4.490;2023-12-22T10:42:33;10.43;;;1.17;;
31004;SDS011;17676;52.254;4.490;2023-12-22T10:45:00;12.95;;;0.95;;
31004;SDS011;17676;52.254;4.490;2023-12-22T10:47:25;12.75;;;1.77;;
31004;SDS011;17676;52.254;4.490;2023-12-22T10:49:51;12.02;;;1.15;;
31004;SDS011;17676;52.254;4.490;2023-12-22T10:52:16;14.13;;;1.17;;
31004;SDS011;17676;52.254;4.490;2023-12-22T10:54:43;16.58;;;0.98;;
31004;SDS011;17676;52.254;4.490;2023-12-22T10:57:10;13.23;;;1.20;;
31004;SDS011;17676;52.254;4.490;2023-12-22T10:59:37;18.33;;;1.95;;
31004;SDS011;17676;52.254;4.490;2023-12-22T11:02:10;18.63;;;1.17;;
31004;SDS011;17676;52.254;4.490;2023-12-22T11:04:45;17.05;;;1.70;;
31004;SDS011;17676;52.254;4.490;2023-12-22T11:07:16;14.63;;;1.30;;
31004;SDS011;17676;52.254;4.490;2023-12-22T11:09:48;14.50;;;0.80;;
31004;SDS011;17676;52.254;4.490;2023-12-22T11:12:16;14.70;;;1.30;;
31004;SDS011;17676;52.254;4.490;2023-12-22T11:14:44;11.95;;;0.95;;
31004;SDS011;17676;52.254;4.490;2023-12-22T11:17:15;13.82;;;1.23;;
31004;SDS011;17676;52.254;4.490;2023-12-22T11:19:44;16.70;;;1.52;;
31004;SDS011;17676;52.254;4.490;2023-12-22T11:22:12;12.85;;;1.27;;
31004;SDS011;17676;52.254;4.490;2023-12-22T11:24:39;15.00;;;1.40;;
31004;SDS011;17676;52.254;4.490;2023-12-22T11:27:06;11.27;;;1.15;;
31004;SDS011;17676;52.254;4.490;2023-12-22T11:29:33;14.70;;;0.90;;
31004;SDS011;17676;52.254;4.490;2023-12-22T11:32:00;17.05;;;1.30;;
31004;SDS011;17676;52.254;4.490;2023-12-22T11:34:27;15.05;;;0.95;;
31004;SDS011;17676;52.254;4.490;2023-12-22T11:36:54;15.35;;;1.25;;
31004;SDS011;17676;52.254;4.490;2023-12-22T11:39:20;18.45;;;1.55;;
31004;SDS011;17676;52.254;4.490;2023-12-22T11:41:46;9.30;;;0.95;;
31004;SDS011;17676;52.254;4.490;2023-12-22T11:44:12;14.50;;;1.20;;
31004;SDS011;17676;52.254;4.490;2023-12-22T11:46:38;20.88;;;1.77;;
31004;SDS011;17676;52.254;4.490;2023-12-22T11:49:06;21.63;;;1.50;;
31004;SDS011;17676;52.254;4.490;2023-12-22T11:51:32;12.35;;;1.45;;
31004;SDS011;17676;52.254;4.490;2023-12-22T11:54:01;14.18;;;0.93;;
31004;SDS011;17676;52.254;4.490;2023-12-22T11:56:26;17.48;;;1.95;;
31004;SDS011;17676;52.254;4.490;2023-12-22T11:58:54;15.35;;;1.48;;
31004;SDS011;17676;52.254;4.490;2023-12-22T12:01:23;20.38;;;1.52;;
31004;SDS011;17676;52.254;4.490;2023-12-22T12:08:54;11.25;;;0.90;;
31004;SDS011;17676;52.254;4.490;2023-12-22T12:11:20;11.38;;;2.45;;
31004;SDS011;17676;52.254;4.490;2023-12-22T12:13:46;18.10;;;1.70;;
31004;SDS011;17676;52.254;4.490;2023-12-22T12:16:13;15.90;;;0.93;;
31004;SDS011;17676;52.254;4.490;2023-12-22T12:18:40;21.77;;;1.40;;
31004;SDS011;17676;52.254;4.490;2023-12-22T12:21:07;15.40;;;1.15;;
31004;SDS011;17676;52.254;4.490;2023-12-22T12:23:34;16.42;;;1.88;;
31004;SDS011;17676;52.254;4.490;2023-12-22T12:25:59;26.45;;;2.65;;
31004;SDS011;17676;52.254;4.490;2023-12-22T12:28:26;18.45;;;1.45;;
31004;SDS011;17676;52.254;4.490;2023-12-22T12:31:00;15.85;;;1.52;;
31004;SDS011;17676;52.254;4.490;2023-12-22T12:33:28;12.88;;;0.85;;
31004;SDS011;17676;52.254;4.490;2023-12-22T12:36:02;8.23;;;0.47;;
31004;SDS011;17676;52.254;4.490;2023-12-22T12:41:30;9.75;;;1.33;;
31004;SDS011;17676;52.254;4.490;2023-12-22T12:43:58;15.90;;;0.90;;
31004;SDS011;17676;52.254;4.490;2023-12-22T12:46:31;11.77;;;0.93;;
31004;SDS011;17676;52.254;4.490;2023-12-22T12:49:06;18.10;;;1.67;;
31004;SDS011;17676;52.254;4.490;2023-12-22T12:51:43;14.75;;;1.13;;
31004;SDS011;17676;52.254;4.490;2023-12-22T12:54:10;16.67;;;1.30;;
31004;SDS011;17676;52.254;4.490;2023-12-22T12:56:39;9.27;;;1.13;;
31004;SDS011;17676;52.254;4.490;2023-12-22T12:59:12;20.33;;;1.35;;
31004;SDS011;17676;52.254;4.490;2023-12-22T13:01:42;18.33;;;2.20;;
31004;SDS011;17676;52.254;4.490;2023-12-22T13:04:09;14.10;;;0.80;;
31004;SDS011;17676;52.254;4.490;2023-12-22T13:06:35;9.45;;;1.00;;
31004;SDS011;17676;52.254;4.490;2023-12-22T13:09:11;8.85;;;0.57;;
31004;SDS011;17676;52.254;4.490;2023-12-22T13:11:38;16.55;;;1.60;;
31004;SDS011;17676;52.254;4.490;2023-12-22T13:14:04;17.17;;;2.05;;
31004;SDS011;17676;52.254;4.490;2023-12-22T13:16:31;17.15;;;1.52;;
31004;SDS011;17676;52.254;4.490;2023-12-22T13:18:57;20.95;;;1.63;;
31004;SDS011;17676;52.254;4.490;2023-12-22T13:21:23;18.27;;;1.27;;
31004;SDS011;17676;52.254;4.490;2023-12-22T13:24:11;20.63;;;2.42;;
31004;SDS011;17676;52.254;4.490;2023-12-22T13:26:43;12.75;;;1.23;;
31004;SDS011;17676;52.254;4.490;2023-12-22T13:29:10;17.75;;;1.15;;
31004;SDS011;17676;52.254;4.490;2023-12-22T13:31:37;14.85;;;1.48;;
31004;SDS011;17676;52.254;4.490;2023-12-22T13:34:03;20.77;;;1.70;;
31004;SDS011;17676;52.254;4.490;2023-12-22T13:36:34;22.00;;;1.92;;
31004;SDS011;17676;52.254;4.490;2023-12-22T13:39:06;16.98;;;2.20;;
31004;SDS011;17676;52.254;4.490;2023-12-22T13:41:35;17.27;;;1.13;;
31004;SDS011;17676;52.254;4.490;2023-12-22T13:44:06;21.50;;;1.77;;
31004;SDS011;17676;52.254;4.490;2023-12-22T13:46:32;15.55;;;1.35;;
31004;SDS011;17676;52.254;4.490;2023-12-22T13:49:02;16.63;;;0.98;;
31004;SDS011;17676;52.254;4.490;2023-12-22T13:51:38;21.13;;;1.42;;
31004;SDS011;17676;52.254;4.490;2023-12-22T13:54:10;21.73;;;1.92;;
31004;SDS011;17676;52.254;4.490;2023-12-22T13:56:36;15.07;;;2.05;;
31004;SDS011;17676;52.254;4.490;2023-12-22T13:59:05;16.60;;;2.22;;
31004;SDS011;17676;52.254;4.490;2023-12-22T14:01:30;23.67;;;2.30;;
31004;SDS011;17676;52.254;4.490;2023-12-22T14:03:56;24.40;;;1.85;;
31004;SDS011;17676;52.254;4.490;2023-12-22T14:06:27;20.65;;;2.22;;
31004;SDS011;17676;52.254;4.490;2023-12-22T14:08:54;12.63;;;1.60;;
31004;SDS011;17676;52.254;4.490;2023-12-22T14:11:20;20.67;;;1.83;;
31004;SDS011;17676;52.254;4.490;2023-12-22T14:13:46;15.63;;;1.92;;
31004;SDS011;17676;52.254;4.490;2023-12-22T14:16:11;21.73;;;2.15;;
31004;SDS011;17676;52.254;4.490;2023-12-22T14:18:36;26.80;;;2.50;;
31004;SDS011;17676;52.254;4.490;2023-12-22T14:21:02;14.32;;;1.70;;
31004;SDS011;17676;52.254;4.490;2023-12-22T14:23:30;27.42;;;2.03;;
31004;SDS011;17676;52.254;4.490;2023-12-22T14:25:55;20.08;;;2.20;;
31004;SDS011;17676;52.254;4.490;2023-12-22T14:28:21;15.73;;;1.92;;
31004;SDS011;17676;52.254;4.490;2023-12-22T14:30:47;18.83;;;3.25;;
31004;SDS011;17676;52.254;4.490;2023-12-22T14:33:12;26.67;;;2.40;;
31004;SDS011;17676;52.254;4.490;2023-12-22T14:35:38;20.13;;;2.10;;
31004;SDS011;17676;52.254;4.490;2023-12-22T14:38:03;17.55;;;2.20;;
31004;SDS011;17676;52.254;4.490;2023-12-22T14:40:29;18.83;;;2.58;;
31004;SDS011;17676;52.254;4.490;2023-12-22T14:42:55;14.55;;;1.70;;
31004;SDS011;17676;52.254;4.490;2023-12-22T14:45:20;16.45;;;1.80;;
31004;SDS011;17676;52.254;4.490;2023-12-22T14:47:46;24.70;;;2.90;;
31004;SDS011;17676;52.254;4.490;2023-12-22T14:50:12;19.25;;;2.10;;
31004;SDS011;17676;52.254;4.490;2023-12-22T14:52:38;24.20;;;1.85;;
31004;SDS011;17676;52.254;4.490;2023-12-22T14:55:03;16.80;;;1.48;;
31004;SDS011;17676;52.254;4.490;2023-12-22T14:57:29;19.88;;;2.72;;
31004;SDS011;17676;52.254;4.490;2023-12-22T14:59:59;20.45;;;1.65;;
31004;SDS011;17676;52.254;4.490;2023-12-22T15:02:24;22.55;;;2.17;;
31004;SDS011;17676;52.254;4.490;2023-12-22T15:04:50;13.13;;;1.58;;
31004;SDS011;17676;52.254;4.490;2023-12-22T15:07:21;21.65;;;2.33;;
31004;SDS011;17676;52.254;4.490;2023-12-22T15:09:46;22.30;;;2.50;;
31004;SDS011;17676;52.254;4.490;2023-12-22T15:12:13;23.20;;;3.00;;